Time;durP1;ratioP1;P1;durP2;ratioP2;P2;SDS_P1;SDS_P2;PMS_P1;PMS_P2;Temp;Humidity;BMP_temperature;BMP_pressure;BME280_temperature;BME280_humidity;BME280_pressure;Samples;Min_cycle;Max_cycle;Signal;HPM_P1;HPM_P2
2022/06/16 03:01:13;;;;;;;9.63;8.83;;;18.80;99.90;;;;;;5883983;23;20522;-65
2022/06/16 03:03:39;;;;;;;9.63;8.73;;;18.80;99.90;;;;;;5017586;28;20812;-65
2022/06/16 03:06:07;;;;;;;9.43;8.53;;;18.80;99.90;;;;;;5017751;28;20448;-64
2022/06/16 03:08:39;;;;;;;10.03;9.13;;;18.80;99.90;;;;;;5017559;28;20445;-64
2022/06/16 03:11:08;;;;;;;8.60;7.80;;;18.80;99.90;;;;;;5020116;28;20983;-64
2022/06/16 03:13:35;;;;;;;8.87;8.00;;;18.80;99.90;;;;;;5022617;28;20479;-64
2022/06/16 03:16:03;;;;;;;9.30;8.37;;;18.80;99.90;;;;;;5019218;28;20448;-65
2022/06/16 03:18:34;;;;;;;9.87;8.67;;;18.70;99.90;;;;;;5019013;28;20477;-65
2022/06/16 03:21:01;;;;;;;10.17;9.17;;;18.70;99.90;;;;;;5017563;28;20479;-65
2022/06/16 03:23:27;;;;;;;8.90;8.20;;;18.70;99.90;;;;;;5017287;28;20460;-65
2022/06/16 03:25:55;;;;;;;9.07;8.30;;;18.60;99.90;;;;;;5017415;28;20452;-64
2022/06/16 03:28:21;;;;;;;10.10;9.10;;;18.60;99.90;;;;;;5017502;28;20453;-63
2022/06/16 03:30:48;;;;;;;10.10;9.20;;;18.60;99.90;;;;;;5017040;28;20448;-64
2022/06/16 03:33:15;;;;;;;9.63;8.60;;;18.60;99.90;;;;;;5016990;28;20464;-64
2022/06/16 03:35:44;;;;;;;9.40;8.60;;;18.60;99.90;;;;;;5016900;28;20468;-64
2022/06/16 03:38:13;;;;;;;12.77;9.00;;;18.60;99.90;;;;;;5016539;28;20805;-64
2022/06/16 03:40:40;;;;;;;9.77;8.97;;;18.60;99.90;;;;;;5016738;28;20483;-63
2022/06/16 03:43:08;;;;;;;8.90;8.10;;;18.60;99.90;;;;;;5017453;28;20524;-63
2022/06/16 03:45:35;;;;;;;9.73;8.83;;;18.60;99.90;;;;;;5017348;28;20524;-64
2022/06/16 03:48:02;;;;;;;11.60;9.77;;;18.60;99.90;;;;;;5016404;28;20829;-64
2022/06/16 03:50:29;;;;;;;11.93;9.60;;;18.60;99.90;;;;;;5016783;28;20476;-64
2022/06/16 03:52:57;;;;;;;9.17;8.40;;;18.60;99.90;;;;;;5016571;28;20472;-65
2022/06/16 03:55:24;;;;;;;11.93;9.73;;;18.70;99.90;;;;;;5016665;28;20453;-65
2022/06/16 03:57:52;;;;;;;9.70;8.97;;;18.70;99.90;;;;;;5016677;28;20508;-64
2022/06/16 04:00:20;;;;;;;9.63;7.97;;;18.70;99.90;;;;;;5016484;28;20543;-65
2022/06/16 04:02:47;;;;;;;9.77;8.87;;;18.70;99.90;;;;;;5016068;28;20539;-64
2022/06/16 04:05:13;;;;;;;9.77;8.97;;;18.80;99.90;;;;;;5016548;28;20467;-65
2022/06/16 04:07:40;;;;;;;9.67;8.70;;;18.80;99.90;;;;;;5015231;28;20844;-65
2022/06/16 04:10:10;;;;;;;9.63;8.93;;;18.90;99.90;;;;;;5016078;28;20684;-64
2022/06/16 04:12:37;;;;;;;10.10;9.10;;;18.90;99.90;;;;;;5016296;28;20552;-66
2022/06/16 04:15:04;;;;;;;9.47;8.77;;;19.00;99.90;;;;;;5016157;28;20480;-66
2022/06/16 04:17:31;;;;;;;8.97;8.13;;;19.10;99.90;;;;;;5015831;28;20457;-66
2022/06/16 04:20:15;;;;;;;9.80;9.00;;;19.10;99.90;;;;;;5016427;28;20481;-66
2022/06/16 04:22:43;;;;;;;9.50;8.50;;;19.20;99.90;;;;;;5016164;28;20481;-66
2022/06/16 04:25:13;;;;;;;9.77;8.80;;;19.30;99.90;;;;;;5016075;28;20456;-67
2022/06/16 04:27:40;;;;;;;8.60;7.83;;;19.40;99.90;;;;;;5015612;28;20920;-66
2022/06/16 04:30:08;;;;;;;9.20;8.50;;;19.40;99.90;;;;;;5016103;28;20448;-66
2022/06/16 04:32:35;;;;;;;9.10;8.30;;;19.50;99.90;;;;;;5015766;28;20477;-66
2022/06/16 04:35:02;;;;;;;9.53;8.63;;;19.60;99.90;;;;;;5016796;28;20456;-66
2022/06/16 04:37:28;;;;;;;8.97;8.17;;;19.60;99.90;;;;;;5016642;28;20467;-66
2022/06/16 04:39:55;;;;;;;8.47;7.77;;;19.70;99.90;;;;;;5016690;28;20488;-64
2022/06/16 04:42:23;;;;;;;7.77;7.07;;;19.70;99.90;;;;;;5015879;28;20979;-64
2022/06/16 04:44:50;;;;;;;7.97;7.20;;;19.80;99.90;;;;;;5016697;28;20460;-64
2022/06/16 04:47:17;;;;;;;8.97;8.17;;;19.90;99.90;;;;;;5016692;28;20449;-64
2022/06/16 04:49:48;;;;;;;8.63;7.20;;;20.00;99.90;;;;;;5016390;28;20456;-64
2022/06/16 04:52:15;;;;;;;8.63;7.93;;;20.00;99.90;;;;;;5016266;28;20531;-65
2022/06/16 04:54:45;;;;;;;7.90;7.30;;;20.10;99.90;;;;;;5015646;28;20457;-65
2022/06/16 04:57:12;;;;;;;8.67;7.87;;;20.10;99.90;;;;;;5016019;28;20460;-65
2022/06/16 04:59:41;;;;;;;7.60;6.90;;;20.20;99.90;;;;;;5015698;28;20499;-65
2022/06/16 05:02:08;;;;;;;8.10;7.30;;;20.30;99.90;;;;;;5019376;28;20552;-65
2022/06/16 05:04:39;;;;;;;8.60;7.90;;;20.30;99.90;;;;;;5026798;28;20479;-65
2022/06/16 05:07:07;;;;;;;9.90;7.43;;;20.40;99.90;;;;;;5015619;28;20441;-65
2022/06/16 05:09:34;;;;;;;7.90;7.30;;;20.50;99.90;;;;;;5015422;28;20523;-65
2022/06/16 05:12:01;;;;;;;7.87;6.73;;;20.60;99.90;;;;;;5015259;28;20874;-65
2022/06/16 05:14:28;;;;;;;8.23;7.57;;;20.60;99.90;;;;;;5015299;28;20461;-64
2022/06/16 05:16:56;;;;;;;8.60;8.00;;;20.60;99.90;;;;;;5015270;28;20453;-64
2022/06/16 05:19:24;;;;;;;7.50;6.80;;;20.60;99.90;;;;;;5014961;28;20473;-64
2022/06/16 05:21:50;;;;;;;7.17;6.53;;;20.60;99.90;;;;;;5014944;28;20485;-64
2022/06/16 05:24:18;;;;;;;7.20;6.70;;;20.70;99.90;;;;;;5014915;28;20460;-64
2022/06/16 05:26:44;;;;;;;7.80;6.80;;;20.80;99.90;;;;;;5014805;28;20472;-64
2022/06/16 05:29:11;;;;;;;7.73;7.13;;;20.80;99.90;;;;;;5015006;28;20980;-65
2022/06/16 05:31:38;;;;;;;9.23;7.80;;;20.90;99.90;;;;;;5014792;28;20476;-65
2022/06/16 05:34:06;;;;;;;7.80;7.07;;;20.90;99.90;;;;;;5014891;28;20449;-65
2022/06/16 05:36:33;;;;;;;7.20;6.70;;;20.90;99.90;;;;;;5015061;28;20802;-64
2022/06/16 05:39:00;;;;;;;7.07;6.40;;;21.00;99.90;;;;;;5014813;28;20943;-64
2022/06/16 05:41:26;;;;;;;7.93;7.10;;;21.10;99.90;;;;;;5015660;28;20476;-65
2022/06/16 05:43:53;;;;;;;9.90;7.50;;;21.30;99.90;;;;;;5014568;28;20453;-65
2022/06/16 05:46:22;;;;;;;7.73;7.10;;;21.40;99.90;;;;;;5014480;28;20459;-65
2022/06/16 05:48:50;;;;;;;7.63;7.10;;;21.50;99.90;;;;;;5014566;28;20453;-64
2022/06/16 05:51:19;;;;;;;7.00;6.43;;;21.60;99.90;;;;;;5014371;28;20469;-64
2022/06/16 05:53:46;;;;;;;7.50;6.80;;;21.80;99.90;;;;;;5014393;28;20453;-64
2022/06/16 05:56:13;;;;;;;7.90;6.83;;;22.00;99.90;;;;;;5014241;28;20453;-64
2022/06/16 05:58:40;;;;;;;9.13;7.30;;;22.20;99.90;;;;;;5013941;28;20457;-63
2022/06/16 06:01:07;;;;;;;10.70;6.70;;;22.40;99.90;;;;;;5014236;28;20484;-64
2022/06/16 06:03:34;;;;;;;6.80;6.27;;;22.50;99.90;;;;;;5014127;28;20940;-65
2022/06/16 06:06:01;;;;;;;13.03;7.10;;;22.60;99.90;;;;;;5014175;28;20464;-66
2022/06/16 06:16:47;;;;;;;6.97;5.93;;;23.00;99.90;;;;;;5021881;28;20417;-64
2022/06/16 06:19:24;;;;;;;7.17;6.67;;;23.10;99.90;;;;;;5014312;28;20925;-64
2022/06/16 06:22:06;;;;;;;5.90;5.50;;;23.10;99.90;;;;;;5014330;28;20472;-64
2022/06/16 06:24:37;;;;;;;6.80;6.30;;;23.10;99.90;;;;;;5014660;28;20495;-64
2022/06/16 06:27:10;;;;;;;6.67;6.17;;;23.20;99.90;;;;;;5014197;28;20978;-64
2022/06/16 06:29:37;;;;;;;6.87;6.27;;;23.30;99.90;;;;;;5014272;28;20440;-64
2022/06/16 06:32:04;;;;;;;6.60;6.00;;;23.30;99.90;;;;;;5013810;28;20481;-64
2022/06/16 06:34:31;;;;;;;5.70;5.23;;;23.40;99.90;;;;;;5014307;28;20456;-64
2022/06/16 06:36:58;;;;;;;5.87;5.47;;;23.60;99.90;;;;;;5013984;28;20523;-64
2022/06/16 06:39:24;;;;;;;5.57;5.17;;;23.70;99.90;;;;;;5014040;28;20457;-64
2022/06/16 06:41:52;;;;;;;7.73;6.00;;;24.00;99.90;;;;;;5014553;28;20809;-65
2022/06/16 06:44:19;;;;;;;5.87;5.37;;;24.30;99.70;;;;;;5014318;28;20455;-65
2022/06/16 06:46:46;;;;;;;5.47;5.07;;;24.60;99.40;;;;;;5013972;28;20536;-64
2022/06/16 06:49:13;;;;;;;7.43;5.00;;;24.90;99.60;;;;;;5014128;28;20456;-65
2022/06/16 06:51:40;;;;;;;6.57;5.60;;;25.00;97.50;;;;;;5014132;28;20527;-65
2022/06/16 06:54:06;;;;;;;5.40;4.90;;;25.20;95.40;;;;;;5014252;28;20456;-64
2022/06/16 06:56:34;;;;;;;5.77;5.20;;;25.30;95.60;;;;;;5013923;28;20453;-65
2022/06/16 06:59:06;;;;;;;5.53;5.03;;;25.30;94.80;;;;;;5013742;28;20452;-65
2022/06/16 07:01:34;;;;;;;6.30;5.70;;;25.20;94.20;;;;;;5013397;28;20480;-65
2022/06/16 07:04:02;;;;;;;5.63;5.23;;;25.20;94.10;;;;;;5013825;28;20456;-65
2022/06/16 07:06:29;;;;;;;6.07;5.30;;;25.30;95.00;;;;;;5013911;28;20567;-66
2022/06/16 07:08:56;;;;;;;6.10;5.57;;;25.50;93.60;;;;;;5013328;28;20958;-64
2022/06/16 07:11:23;;;;;;;5.33;4.83;;;25.80;93.50;;;;;;5013801;28;20543;-65
2022/06/16 07:13:49;;;;;;;6.40;5.83;;;26.30;93.30;;;;;;5013815;28;20453;-65
2022/06/16 07:16:18;;;;;;;5.90;5.30;;;27.00;92.40;;;;;;5013447;28;20548;-73
2022/06/16 07:18:45;;;;;;;5.97;5.40;;;27.70;90.40;;;;;;5013411;28;20806;-65
2022/06/16 07:21:14;;;;;;;6.40;5.03;;;28.20;88.10;;;;;;5013207;28;20627;-65
2022/06/16 07:23:41;;;;;;;7.03;5.10;;;28.60;85.60;;;;;;5013024;28;20940;-65
2022/06/16 07:26:08;;;;;;;5.30;5.00;;;29.20;81.50;;;;;;5013569;28;20459;-65
2022/06/16 07:28:35;;;;;;;5.20;4.73;;;29.40;80.50;;;;;;5013560;28;20452;-65
2022/06/16 07:31:02;;;;;;;5.30;5.00;;;29.70;79.60;;;;;;5013211;28;20480;-65
2022/06/16 07:33:30;;;;;;;5.20;4.80;;;30.20;78.30;;;;;;5013280;28;20457;-64
2022/06/16 07:35:57;;;;;;;6.50;5.90;;;30.40;73.30;;;;;;5013493;28;20460;-65
2022/06/16 07:38:26;;;;;;;5.17;4.63;;;30.50;73.20;;;;;;5013327;28;20456;-65
2022/06/16 07:41:30;;;;;;;6.07;4.50;;;30.80;72.80;;;;;;5013180;28;21002;-65
2022/06/16 07:43:40;;;;;;;5.57;5.07;;;31.00;71.20;;;;;;5015355;28;20824;-66
2022/06/16 07:46:07;;;;;;;5.10;4.57;;;31.10;69.30;;;;;;5017032;28;20488;-66
2022/06/16 07:48:35;;;;;;;4.90;4.30;;;31.50;68.60;;;;;;5016963;28;20460;-66
2022/06/16 07:51:02;;;;;;;4.90;4.47;;;31.90;67.20;;;;;;5016644;28;20476;-64
2022/06/16 07:53:29;;;;;;;7.97;5.00;;;32.00;64.70;;;;;;5016411;28;20944;-65
2022/06/16 07:55:56;;;;;;;4.80;4.40;;;32.10;64.50;;;;;;5016816;28;20456;-65
2022/06/16 07:58:23;;;;;;;5.67;4.53;;;32.10;64.50;;;;;;5016206;28;20453;-65
2022/06/16 08:00:50;;;;;;;4.30;3.97;;;32.30;65.80;;;;;;5016141;28;20534;-66
2022/06/16 08:03:18;;;;;;;4.93;4.50;;;32.50;65.40;;;;;;5016602;28;20433;-67
2022/06/16 08:05:46;;;;;;;5.50;5.00;;;32.90;63.40;;;;;;5016640;28;20870;-65
2022/06/16 08:08:12;;;;;;;5.03;4.63;;;33.20;62.30;;;;;;5016393;28;20467;-66
2022/06/16 08:10:39;;;;;;;5.53;5.10;;;33.20;62.50;;;;;;5016367;28;20448;-66
2022/06/16 08:13:07;;;;;;;4.83;4.13;;;33.10;61.50;;;;;;5016408;28;20457;-66
2022/06/16 08:15:34;;;;;;;5.60;4.30;;;32.90;61.50;;;;;;5016371;28;20460;-66
2022/06/16 08:18:01;;;;;;;6.07;4.33;;;33.00;61.80;;;;;;5016729;28;20804;-67
2022/06/16 08:20:27;;;;;;;5.87;4.33;;;32.80;61.80;;;;;;5016181;28;20508;-66
2022/06/16 08:22:56;;;;;;;4.40;4.00;;;32.40;61.10;;;;;;5015659;28;20983;-66
2022/06/16 08:25:25;;;;;;;5.37;4.67;;;32.20;62.40;;;;;;5015939;28;20460;-66
2022/06/16 08:27:52;;;;;;;4.70;4.30;;;31.90;64.70;;;;;;5015979;28;20996;-66
2022/06/16 08:30:19;;;;;;;4.80;4.40;;;31.70;64.30;;;;;;5016197;28;20491;-66
2022/06/16 08:32:46;;;;;;;4.73;4.33;;;31.40;63.90;;;;;;5015967;28;20528;-66
2022/06/16 08:35:13;;;;;;;4.77;4.37;;;31.10;62.90;;;;;;5015895;28;20873;-66
2022/06/16 08:37:40;;;;;;;4.90;4.50;;;30.90;63.70;;;;;;5015610;28;20815;-66
2022/06/16 08:40:11;;;;;;;4.87;4.47;;;30.70;62.70;;;;;;5015817;28;20499;-67
2022/06/16 08:42:43;;;;;;;5.70;5.13;;;31.00;62.90;;;;;;5021564;28;20837;-66
2022/06/16 08:45:20;;;;;;;4.27;3.87;;;31.60;62.90;;;;;;5026631;28;20441;-67
2022/06/16 08:47:53;;;;;;;4.40;4.00;;;32.20;60.20;;;;;;5017022;28;20436;-66
2022/06/16 08:50:31;;;;;;;6.00;4.70;;;32.40;61.40;;;;;;5015631;28;20436;-66
2022/06/16 08:53:13;;;;;;;4.70;4.30;;;32.80;61.60;;;;;;5015284;28;20474;-69
2022/06/16 08:55:50;;;;;;;5.00;4.10;;;33.30;59.70;;;;;;5014012;28;20936;-69
2022/06/16 08:58:23;;;;;;;5.27;4.77;;;33.30;57.30;;;;;;5015460;28;20185;-69
2022/06/16 09:00:55;;;;;;;5.53;4.70;;;33.50;58.90;;;;;;5015446;28;20483;-68
2022/06/16 09:03:28;;;;;;;5.17;4.77;;;33.60;58.20;;;;;;5015760;28;20437;-67
2022/06/16 09:06:01;;;;;;;5.73;5.33;;;34.10;58.30;;;;;;5016095;28;20491;-68
2022/06/16 09:08:42;;;;;;;7.47;5.10;;;34.60;56.30;;;;;;5015342;28;20436;-68
2022/06/16 09:11:18;;;;;;;5.73;5.13;;;34.60;57.00;;;;;;5015477;28;20472;-67
2022/06/16 09:14:14;;;;;;;5.83;5.33;;;35.10;55.60;;;;;;5014911;28;20440;-68
2022/06/16 09:16:51;;;;;;;5.50;5.03;;;35.20;55.70;;;;;;5015082;28;20441;-67
2022/06/16 09:19:32;;;;;;;7.30;4.83;;;35.60;55.80;;;;;;5015200;28;20447;-68
2022/06/16 09:22:11;;;;;;;5.67;5.17;;;36.00;55.10;;;;;;5015212;28;20491;-67
2022/06/16 09:25:03;;;;;;;5.60;5.00;;;35.80;55.40;;;;;;5014963;28;20448;-66
2022/06/16 09:27:36;;;;;;;6.13;5.63;;;36.00;55.60;;;;;;5014854;28;20798;-67
2022/06/16 09:30:06;;;;;;;5.47;5.07;;;36.20;54.20;;;;;;5014870;28;20444;-68
2022/06/16 09:32:37;;;;;;;5.33;4.93;;;36.20;54.10;;;;;;5014696;28;20483;-68
2022/06/16 09:35:10;;;;;;;5.73;5.23;;;35.90;53.70;;;;;;5014769;28;20444;-67
2022/06/16 09:37:45;;;;;;;5.80;5.00;;;35.70;55.00;;;;;;5014974;28;20524;-67
2022/06/16 09:40:17;;;;;;;5.80;5.00;;;36.10;54.70;;;;;;5014562;28;20842;-67
2022/06/16 09:42:52;;;;;;;6.03;5.63;;;36.20;53.80;;;;;;5014566;28;20476;-67
2022/06/16 09:45:23;;;;;;;5.87;5.47;;;36.00;52.80;;;;;;5014524;28;20444;-68
2022/06/16 09:47:56;;;;;;;6.23;4.87;;;35.80;53.80;;;;;;5014528;28;20441;-67
2022/06/16 09:50:30;;;;;;;7.27;5.10;;;36.00;53.60;;;;;;5014169;28;20912;-67
2022/06/16 09:53:04;;;;;;;4.93;4.57;;;35.70;54.60;;;;;;5014070;28;20478;-67
2022/06/16 09:55:35;;;;;;;5.47;4.97;;;35.70;54.40;;;;;;5014583;28;20448;-67
2022/06/16 09:58:13;;;;;;;6.30;4.13;;;35.90;54.00;;;;;;5014804;28;20440;-66
2022/06/16 10:00:41;;;;;;;4.53;4.23;;;36.30;54.00;;;;;;5014351;28;20461;-67
2022/06/16 10:03:17;;;;;;;5.10;4.70;;;36.60;52.70;;;;;;5014312;28;20459;-67
2022/06/16 10:05:57;;;;;;;4.83;4.43;;;36.30;52.50;;;;;;5013266;28;20486;-68
2022/06/16 10:08:31;;;;;;;4.30;4.00;;;36.40;51.60;;;;;;5015133;28;20444;-67
2022/06/16 10:11:05;;;;;;;6.30;4.40;;;36.50;52.80;;;;;;5014160;28;20471;-67
2022/06/16 10:13:38;;;;;;;10.93;4.37;;;36.20;53.70;;;;;;5013792;28;20437;-67
2022/06/16 10:16:12;;;;;;;5.07;4.67;;;36.20;52.30;;;;;;5014180;28;20448;-66
2022/06/16 10:18:39;;;;;;;5.23;4.73;;;36.50;51.30;;;;;;5013995;28;20487;-66
2022/06/16 10:21:07;;;;;;;4.60;4.20;;;36.30;51.30;;;;;;5014026;28;20484;-65
2022/06/16 10:23:38;;;;;;;5.60;4.40;;;36.40;51.30;;;;;;5013887;28;20967;-70
2022/06/16 10:26:07;;;;;;;3.93;3.67;;;36.70;51.10;;;;;;5014049;28;20547;-68
2022/06/16 10:28:38;;;;;;;4.43;4.00;;;37.30;50.60;;;;;;5013862;28;20456;-71
2022/06/16 10:31:06;;;;;;;9.77;4.57;;;37.20;51.20;;;;;;5013841;28;20472;-65
2022/06/16 10:33:35;;;;;;;6.30;3.90;;;37.30;52.10;;;;;;5013508;28;20939;-67
2022/06/16 10:36:07;;;;;;;5.00;4.60;;;37.50;51.60;;;;;;5013547;28;20452;-66
2022/06/16 10:38:36;;;;;;;3.70;3.40;;;37.50;49.30;;;;;;5013903;28;20441;-68
2022/06/16 10:41:06;;;;;;;4.27;3.80;;;37.50;50.80;;;;;;5013857;28;20511;-76
2022/06/16 10:43:40;;;;;;;4.53;3.80;;;37.70;50.90;;;;;;5013696;28;20460;-69
2022/06/16 10:46:12;;;;;;;4.23;3.77;;;37.30;49.10;;;;;;5014613;28;20437;-71
2022/06/16 10:48:45;;;;;;;4.43;3.50;;;36.90;50.60;;;;;;5013597;28;20920;-67
2022/06/16 10:51:14;;;;;;;3.80;3.50;;;37.00;51.70;;;;;;5013588;28;20498;-67
2022/06/16 10:53:43;;;;;;;4.00;3.43;;;37.00;50.00;;;;;;5013681;28;20460;-66
2022/06/16 10:56:16;;;;;;;4.20;3.90;;;37.10;51.00;;;;;;5013663;28;20448;-66
2022/06/16 10:58:52;;;;;;;5.37;4.03;;;36.80;50.20;;;;;;5013670;28;20441;-66
2022/06/16 11:01:24;;;;;;;3.70;3.37;;;36.60;49.90;;;;;;5013149;28;20511;-68
2022/06/16 11:03:54;;;;;;;4.07;3.80;;;36.20;49.60;;;;;;5013728;28;20440;-67
2022/06/16 11:06:23;;;;;;;4.33;4.03;;;35.60;50.40;;;;;;5014221;28;20447;-67
2022/06/16 11:08:52;;;;;;;4.20;3.83;;;35.60;51.90;;;;;;5014351;28;20456;-68
2022/06/16 11:11:33;;;;;;;4.03;3.70;;;35.90;51.00;;;;;;5013718;28;20498;-68
2022/06/16 11:14:03;;;;;;;6.13;3.20;;;36.00;50.80;;;;;;5013735;28;20494;-67
2022/06/16 11:16:32;;;;;;;6.13;3.57;;;35.80;50.30;;;;;;5014551;28;20455;-68
2022/06/16 11:19:07;;;;;;;3.97;3.77;;;35.80;51.20;;;;;;5017161;28;20460;-68
2022/06/16 11:21:35;;;;;;;4.00;3.57;;;35.80;52.30;;;;;;5017021;28;20483;-68
2022/06/16 11:24:06;;;;;;;6.60;3.90;;;35.60;52.30;;;;;;5017181;28;20828;-67
2022/06/16 11:26:35;;;;;;;3.63;3.23;;;35.50;52.50;;;;;;5017288;28;20476;-67
2022/06/16 11:29:22;;;;;;;4.13;3.57;;;34.70;52.30;;;;;;5017255;28;20458;-67
2022/06/16 11:31:53;;;;;;;4.73;3.60;;;34.30;54.80;;;;;;5017060;28;20479;-66
2022/06/16 11:34:23;;;;;;;9.83;3.77;;;34.20;54.50;;;;;;5017127;28;20779;-68
2022/06/16 11:37:07;;;;;;;4.63;4.23;;;34.00;52.30;;;;;;5017291;28;20472;-67
2022/06/16 11:39:47;;;;;;;4.13;3.73;;;33.80;53.70;;;;;;5016886;28;20938;-65
2022/06/16 11:42:22;;;;;;;10.60;3.60;;;33.30;54.30;;;;;;5017923;28;20476;-66
2022/06/16 11:44:58;;;;;;;3.80;3.50;;;32.90;54.50;;;;;;5030675;28;20437;-66
2022/06/16 11:47:37;;;;;;;3.80;3.50;;;32.90;56.40;;;;;;5025715;28;20454;-65
2022/06/16 11:50:11;;;;;;;4.40;3.77;;;33.00;55.10;;;;;;5018822;28;20436;-66
2022/06/16 11:52:44;;;;;;;4.70;3.70;;;33.10;54.80;;;;;;5016921;28;20469;-66
2022/06/16 11:55:27;;;;;;;6.00;4.10;;;33.20;55.40;;;;;;5016702;28;20448;-65
2022/06/16 11:58:01;;;;;;;3.50;3.20;;;33.30;55.30;;;;;;5016205;28;20904;-65
2022/06/16 12:00:33;;;;;;;3.77;3.47;;;33.40;54.30;;;;;;5016474;28;20452;-65
2022/06/16 12:03:28;;;;;;;5.47;3.70;;;33.20;54.70;;;;;;5016312;28;20488;-66
2022/06/16 12:06:14;;;;;;;3.80;3.50;;;33.10;53.70;;;;;;5016432;28;20433;-67
2022/06/16 12:08:58;;;;;;;4.30;4.00;;;33.00;53.20;;;;;;5015953;28;20908;-67
2022/06/16 12:11:32;;;;;;;4.43;3.70;;;32.90;54.50;;;;;;5016016;28;20472;-67
2022/06/16 12:14:07;;;;;;;10.00;3.80;;;32.90;54.60;;;;;;5016071;28;20437;-67
2022/06/16 12:16:42;;;;;;;3.57;3.23;;;33.00;55.40;;;;;;5016049;28;20440;-67
2022/06/16 12:19:16;;;;;;;5.87;3.33;;;33.10;53.60;;;;;;5015978;28;20531;-67
2022/06/16 12:21:47;;;;;;;9.53;3.10;;;33.10;55.50;;;;;;5015892;28;20487;-67
2022/06/16 12:24:20;;;;;;;4.23;3.73;;;33.30;53.20;;;;;;5016111;28;20495;-67
2022/06/16 12:26:56;;;;;;;5.70;3.67;;;33.30;54.50;;;;;;5016044;28;20459;-68
2022/06/16 12:29:35;;;;;;;5.00;3.40;;;33.50;54.70;;;;;;5015311;28;20447;-67
2022/06/16 12:32:14;;;;;;;3.33;3.00;;;33.50;53.60;;;;;;5015796;28;20469;-68
2022/06/16 12:34:52;;;;;;;4.50;4.20;;;33.40;52.40;;;;;;5015974;28;20440;-67
2022/06/16 12:37:22;;;;;;;5.00;3.80;;;33.10;51.70;;;;;;5015880;28;20444;-67
2022/06/16 12:39:55;;;;;;;3.50;3.17;;;32.60;51.70;;;;;;5015649;28;20449;-67
2022/06/16 12:42:28;;;;;;;5.27;4.07;;;32.30;51.70;;;;;;5015778;28;20563;-67
2022/06/16 12:45:02;;;;;;;4.27;3.90;;;31.90;51.50;;;;;;5015656;28;20437;-67
2022/06/16 12:47:36;;;;;;;5.33;3.70;;;31.90;53.00;;;;;;5015886;28;20449;-68
2022/06/16 12:50:08;;;;;;;4.03;3.83;;;31.90;54.00;;;;;;5015509;28;20448;-67
2022/06/16 12:52:39;;;;;;;5.03;3.17;;;31.90;53.50;;;;;;5016086;28;20986;-67
2022/06/16 12:55:10;;;;;;;4.37;4.00;;;32.00;53.80;;;;;;5015672;28;20441;-67
2022/06/16 12:57:41;;;;;;;3.67;3.37;;;32.20;54.80;;;;;;5015566;28;20441;-67
2022/06/16 13:00:13;;;;;;;4.73;3.73;;;32.30;52.90;;;;;;5015438;28;20444;-67
2022/06/16 13:02:45;;;;;;;4.03;3.60;;;32.40;52.90;;;;;;5015821;28;20595;-67
2022/06/16 13:05:13;;;;;;;3.43;3.13;;;32.30;51.70;;;;;;5015584;28;20441;-66
2022/06/16 13:07:45;;;;;;;3.93;3.50;;;32.30;52.00;;;;;;5015762;28;20464;-66
2022/06/16 13:10:13;;;;;;;4.40;4.03;;;32.30;52.10;;;;;;5015317;28;20528;-66
2022/06/16 13:12:43;;;;;;;3.73;3.23;;;32.20;52.60;;;;;;5014982;28;20501;-67
2022/06/16 13:15:16;;;;;;;3.47;3.27;;;32.10;51.70;;;;;;5015053;28;20462;-67
2022/06/16 13:17:52;;;;;;;6.20;4.10;;;32.10;53.40;;;;;;5015097;28;20437;-67
2022/06/16 13:20:21;;;;;;;3.60;3.30;;;32.10;52.80;;;;;;5014817;28;20446;-67
2022/06/16 13:22:55;;;;;;;3.43;2.93;;;32.00;51.00;;;;;;5014943;28;20480;-66
2022/06/16 13:25:40;;;;;;;3.30;2.87;;;31.90;49.00;;;;;;5015368;28;20440;-66
2022/06/16 13:28:11;;;;;;;4.83;3.73;;;31.50;45.90;;;;;;5015141;28;20449;-66
2022/06/16 13:30:41;;;;;;;3.70;3.40;;;31.40;48.60;;;;;;5015028;28;20441;-66
2022/06/16 13:33:30;;;;;;;4.53;3.27;;;31.60;49.80;;;;;;5014574;28;20453;-66
2022/06/16 13:36:15;;;;;;;3.53;3.27;;;31.70;47.80;;;;;;5014985;28;20496;-66
2022/06/16 13:38:47;;;;;;;2.97;2.87;;;31.70;48.60;;;;;;5014673;28;20440;-66
2022/06/16 13:41:35;;;;;;;4.80;3.60;;;31.70;49.30;;;;;;5014841;28;20520;-67
2022/06/16 13:44:11;;;;;;;4.10;3.40;;;31.70;50.20;;;;;;5014415;28;20433;-66
2022/06/16 13:47:03;;;;;;;3.23;3.03;;;31.70;50.40;;;;;;5014367;28;20433;-67
2022/06/16 13:49:34;;;;;;;4.47;3.57;;;31.80;50.80;;;;;;5014451;28;20817;-66
2022/06/16 13:52:10;;;;;;;3.90;3.60;;;31.90;50.30;;;;;;5014686;28;20983;-66
2022/06/16 13:54:38;;;;;;;3.07;2.70;;;31.90;50.70;;;;;;5015088;28;20440;-66
2022/06/16 13:57:19;;;;;;;3.00;2.80;;;31.90;48.60;;;;;;5014670;28;20448;-66
2022/06/16 13:59:53;;;;;;;3.13;2.93;;;32.10;48.90;;;;;;5014041;28;20970;-67
2022/06/16 14:02:21;;;;;;;3.13;2.80;;;32.20;47.90;;;;;;5013912;28;20928;-67
2022/06/16 14:05:03;;;;;;;3.30;3.10;;;32.30;48.50;;;;;;5013822;28;20515;-67
2022/06/16 14:07:33;;;;;;;3.17;2.97;;;32.10;46.30;;;;;;5014557;28;20441;-67
2022/06/16 14:10:08;;;;;;;3.40;3.20;;;31.90;45.70;;;;;;5014101;28;20410;-67
2022/06/16 14:13:00;;;;;;;3.40;3.20;;;31.90;47.00;;;;;;5013875;28;20472;-65
2022/06/16 14:15:56;;;;;;;3.13;2.90;;;31.90;49.60;;;;;;5013642;28;20801;-65
2022/06/16 14:18:27;;;;;;;3.57;3.27;;;31.90;46.20;;;;;;5013991;28;20472;-65
2022/06/16 14:21:01;;;;;;;3.57;3.27;;;31.90;47.00;;;;;;5013811;28;20429;-65
2022/06/16 14:23:33;;;;;;;4.70;2.93;;;31.60;46.20;;;;;;5013843;28;20464;-65
2022/06/16 14:26:04;;;;;;;5.00;3.17;;;31.60;48.40;;;;;;5014488;28;20444;-65
2022/06/16 14:28:35;;;;;;;4.50;3.57;;;31.60;49.00;;;;;;5014026;28;20499;-65
2022/06/16 14:31:06;;;;;;;3.50;3.20;;;31.50;49.40;;;;;;5013845;28;20441;-67
2022/06/16 14:33:40;;;;;;;3.70;3.37;;;31.60;49.30;;;;;;5014138;28;20437;-67
2022/06/16 14:36:14;;;;;;;3.67;3.17;;;31.50;48.40;;;;;;5014078;28;20445;-67
2022/06/16 14:38:49;;;;;;;3.03;2.77;;;31.50;47.60;;;;;;5013768;28;20460;-66
2022/06/16 14:41:21;;;;;;;5.80;3.27;;;31.40;46.60;;;;;;5013686;28;20485;-65
2022/06/16 14:43:56;;;;;;;3.70;2.80;;;31.20;45.10;;;;;;5013701;28;20516;-67
2022/06/16 14:46:27;;;;;;;2.93;2.73;;;31.20;48.10;;;;;;5013708;28;20938;-66
2022/06/16 14:48:59;;;;;;;3.87;3.57;;;31.20;47.40;;;;;;5013943;28;20437;-65
2022/06/16 14:51:32;;;;;;;5.47;2.90;;;31.10;48.50;;;;;;5014667;28;20495;-65
2022/06/16 14:54:01;;;;;;;3.60;3.30;;;31.20;48.70;;;;;;5017930;28;20444;-66
2022/06/16 14:56:29;;;;;;;3.27;2.97;;;31.40;49.40;;;;;;5017627;28;20968;-66
2022/06/16 14:58:57;;;;;;;4.13;2.97;;;31.60;48.50;;;;;;5017818;28;20506;-66
2022/06/16 15:01:27;;;;;;;3.23;2.90;;;31.50;47.10;;;;;;5017188;28;21061;-65
2022/06/16 15:03:55;;;;;;;4.20;3.10;;;31.50;46.80;;;;;;5017422;28;20900;-65
2022/06/16 15:06:23;;;;;;;4.30;3.27;;;31.50;49.10;;;;;;5017537;28;20840;-65
2022/06/16 15:08:55;;;;;;;3.10;2.90;;;31.40;47.20;;;;;;5017526;28;20821;-65
2022/06/16 15:11:24;;;;;;;3.63;3.17;;;31.40;48.00;;;;;;5017217;28;20846;-65
2022/06/16 15:13:53;;;;;;;4.07;3.27;;;31.50;47.90;;;;;;5017475;28;20448;-66
2022/06/16 15:19:09;;;;;;;3.63;2.93;;;31.60;47.80;;;;;;5017661;28;20785;-65
2022/06/16 15:21:37;;;;;;;3.50;2.97;;;31.20;46.40;;;;;;5017326;28;20567;-65
2022/06/16 15:24:05;;;;;;;3.73;3.43;;;31.10;47.40;;;;;;5017213;28;20550;-65
2022/06/16 15:26:32;;;;;;;4.00;3.60;;;31.10;47.50;;;;;;5020007;28;20461;-66
2022/06/16 15:29:02;;;;;;;3.20;3.00;;;31.10;47.90;;;;;;5026141;28;20452;-65
2022/06/16 15:31:29;;;;;;;6.27;3.50;;;31.20;48.10;;;;;;5021193;28;20472;-65
2022/06/16 15:36:57;;;;;;;5.10;3.33;;;31.20;47.40;;;;;;5016963;28;20420;-65
2022/06/16 15:39:30;;;;;;;4.00;3.00;;;31.30;47.20;;;;;;5017002;28;20814;-66
2022/06/16 15:41:57;;;;;;;3.20;2.90;;;31.20;46.70;;;;;;5016852;28;20526;-65
2022/06/16 15:44:27;;;;;;;3.23;2.77;;;31.10;47.70;;;;;;5016634;28;20448;-66
2022/06/16 15:46:57;;;;;;;3.50;3.20;;;31.20;48.60;;;;;;5017684;28;20445;-65
2022/06/16 15:49:28;;;;;;;4.17;3.07;;;31.20;47.90;;;;;;5016697;28;20460;-66
2022/06/16 15:51:58;;;;;;;2.97;2.77;;;31.20;46.90;;;;;;5016866;28;20484;-65
2022/06/16 15:54:26;;;;;;;3.20;2.80;;;31.10;46.00;;;;;;5016669;28;20499;-65
2022/06/16 15:56:57;;;;;;;3.80;2.97;;;31.00;47.20;;;;;;5016720;28;20448;-65
2022/06/16 15:59:24;;;;;;;3.13;2.83;;;31.00;45.90;;;;;;5016449;28;21024;-65
2022/06/16 16:01:52;;;;;;;4.30;2.97;;;31.00;46.00;;;;;;5016319;28;20552;-65
2022/06/16 16:04:24;;;;;;;3.00;2.70;;;31.00;46.30;;;;;;5015232;28;20484;-65
2022/06/16 16:06:52;;;;;;;4.70;2.97;;;30.90;45.70;;;;;;5016466;28;20445;-65
2022/06/16 16:09:24;;;;;;;2.87;2.67;;;31.10;46.10;;;;;;5016270;28;20974;-65
2022/06/16 16:11:56;;;;;;;2.73;2.53;;;30.70;45.30;;;;;;5016204;28;20507;-65
2022/06/16 16:14:23;;;;;;;2.80;2.60;;;30.60;45.70;;;;;;5017197;28;20433;-67
2022/06/16 16:16:57;;;;;;;2.80;2.67;;;30.70;47.60;;;;;;5016272;28;20460;-68
2022/06/16 16:19:24;;;;;;;3.80;2.80;;;30.60;47.00;;;;;;5016751;28;20447;-67